sensor_id;sensor_type;location;lat;lon;timestamp;pressure;altitude;pressure_sealevel;temperature;humidity
76753;BME280;65687;51.308;16.916;2023-04-24T00:01:46;98628.02;;;12.63;75.11
76753;BME280;65687;51.308;16.916;2023-04-24T00:06:47;98632.61;;;12.68;75.18
76753;BME280;65687;51.308;16.916;2023-04-24T00:11:55;98629.50;;;12.71;75.04
76753;BME280;65687;51.308;16.916;2023-04-24T00:16:57;98618.24;;;12.74;75.08
76753;BME280;65687;51.308;16.916;2023-04-24T00:21:58;98600.39;;;12.77;75.17
76753;BME280;65687;51.308;16.916;2023-04-24T00:27:00;98599.66;;;12.85;74.99
76753;BME280;65687;51.308;16.916;2023-04-24T00:32:02;98595.16;;;12.92;75.25
76753;BME280;65687;51.308;16.916;2023-04-24T00:37:04;98590.77;;;12.97;75.57
76753;BME280;65687;51.308;16.916;2023-04-24T00:42:05;98588.52;;;12.95;75.95
76753;BME280;65687;51.308;16.916;2023-04-24T00:47:07;98592.01;;;12.94;75.97
76753;BME280;65687;51.308;16.916;2023-04-24T00:52:09;98586.42;;;12.89;76.20
76753;BME280;65687;51.308;16.916;2023-04-24T00:57:14;98589.20;;;12.81;76.46
76753;BME280;65687;51.308;16.916;2023-04-24T01:02:19;98589.32;;;12.75;76.64
76753;BME280;65687;51.308;16.916;2023-04-24T01:07:22;98580.45;;;12.69;77.04
76753;BME280;65687;51.308;16.916;2023-04-24T01:12:24;98576.05;;;12.64;76.94
76753;BME280;65687;51.308;16.916;2023-04-24T01:17:26;98577.30;;;12.61;77.07
76753;BME280;65687;51.308;16.916;2023-04-24T01:22:28;98573.75;;;12.62;76.90
76753;BME280;65687;51.308;16.916;2023-04-24T01:27:29;98575.44;;;12.62;77.01
76753;BME280;65687;51.308;16.916;2023-04-24T01:32:31;98573.45;;;12.58;77.07
76753;BME280;65687;51.308;16.916;2023-04-24T01:37:33;98568.85;;;12.57;77.24
76753;BME280;65687;51.308;16.916;2023-04-24T01:42:35;98565.38;;;12.51;77.35
76753;BME280;65687;51.308;16.916;2023-04-24T01:47:40;98560.85;;;12.47;77.22
76753;BME280;65687;51.308;16.916;2023-04-24T01:52:42;98559.29;;;12.46;77.18
76753;BME280;65687;51.308;16.916;2023-04-24T01:57:44;98550.13;;;12.42;77.16
76753;BME280;65687;51.308;16.916;2023-04-24T02:02:46;98546.38;;;12.36;77.22
76753;BME280;65687;51.308;16.916;2023-04-24T02:07:49;98535.64;;;12.29;77.35
76753;BME280;65687;51.308;16.916;2023-04-24T02:12:52;98531.30;;;12.22;77.39
76753;BME280;65687;51.308;16.916;2023-04-24T02:17:53;98526.14;;;12.20;77.28
76753;BME280;65687;51.308;16.916;2023-04-24T02:22:55;98519.17;;;12.19;77.43
76753;BME280;65687;51.308;16.916;2023-04-24T02:27:56;98514.60;;;12.24;76.84
76753;BME280;65687;51.308;16.916;2023-04-24T02:32:58;98514.24;;;12.28;76.62
76753;BME280;65687;51.308;16.916;2023-04-24T02:37:59;98509.05;;;12.25;76.84
76753;BME280;65687;51.308;16.916;2023-04-24T02:43:01;98506.20;;;12.26;76.82
76753;BME280;65687;51.308;16.916;2023-04-24T02:48:02;98499.79;;;12.21;77.06
76753;BME280;65687;51.308;16.916;2023-04-24T02:53:04;98501.44;;;12.20;77.03
76753;BME280;65687;51.308;16.916;2023-04-24T02:58:07;98498.48;;;12.18;77.27
76753;BME280;65687;51.308;16.916;2023-04-24T03:03:08;98490.83;;;12.13;77.09
76753;BME280;65687;51.308;16.916;2023-04-24T03:08:11;98487.27;;;12.13;76.70
76753;BME280;65687;51.308;16.916;2023-04-24T03:13:12;98484.52;;;12.16;76.33
76753;BME280;65687;51.308;16.916;2023-04-24T03:18:14;98481.91;;;12.18;76.17
76753;BME280;65687;51.308;16.916;2023-04-24T03:23:15;98482.75;;;12.23;75.67
76753;BME280;65687;51.308;16.916;2023-04-24T03:28:17;98486.58;;;12.26;75.45
76753;BME280;65687;51.308;16.916;2023-04-24T03:33:19;98483.74;;;12.27;75.16
76753;BME280;65687;51.308;16.916;2023-04-24T03:38:20;98475.29;;;12.23;75.48
76753;BME280;65687;51.308;16.916;2023-04-24T03:43:22;98477.88;;;12.20;74.88
76753;BME280;65687;51.308;16.916;2023-04-24T03:48:23;98486.96;;;12.22;74.62
76753;BME280;65687;51.308;16.916;2023-04-24T03:53:26;98492.42;;;12.24;74.63
76753;BME280;65687;51.308;16.916;2023-04-24T03:58:27;98496.29;;;12.23;74.41
76753;BME280;65687;51.308;16.916;2023-04-24T04:03:29;98496.13;;;12.18;75.01
76753;BME280;65687;51.308;16.916;2023-04-24T04:08:31;98499.73;;;12.11;75.08
76753;BME280;65687;51.308;16.916;2023-04-24T04:13:33;98501.28;;;12.07;74.93
76753;BME280;65687;51.308;16.916;2023-04-24T04:18:35;98498.64;;;12.09;74.83
76753;BME280;65687;51.308;16.916;2023-04-24T04:23:36;98502.65;;;12.12;74.84
76753;BME280;65687;51.308;16.916;2023-04-24T04:28:38;98501.01;;;12.09;74.91
76753;BME280;65687;51.308;16.916;2023-04-24T04:33:40;98496.89;;;12.08;75.23
76753;BME280;65687;51.308;16.916;2023-04-24T04:38:42;98497.02;;;11.98;75.50
76753;BME280;65687;51.308;16.916;2023-04-24T04:43:44;98497.76;;;11.99;75.01
76753;BME280;65687;51.308;16.916;2023-04-24T04:48:45;98494.89;;;12.04;74.90
76753;BME280;65687;51.308;16.916;2023-04-24T04:53:47;98498.58;;;12.07;74.91
76753;BME280;65687;51.308;16.916;2023-04-24T04:58:48;98495.41;;;12.09;75.03
76753;BME280;65687;51.308;16.916;2023-04-24T05:03:50;98494.80;;;12.10;75.16
76753;BME280;65687;51.308;16.916;2023-04-24T05:08:52;98497.27;;;12.17;74.63
76753;BME280;65687;51.308;16.916;2023-04-24T05:13:58;98498.05;;;12.29;74.07
76753;BME280;65687;51.308;16.916;2023-04-24T05:19:00;98499.00;;;12.37;73.88
76753;BME280;65687;51.308;16.916;2023-04-24T05:24:01;98499.99;;;12.46;73.05
76753;BME280;65687;51.308;16.916;2023-04-24T05:29:03;98513.27;;;12.52;73.10
76753;BME280;65687;51.308;16.916;2023-04-24T05:34:05;98514.92;;;12.56;72.48
76753;BME280;65687;51.308;16.916;2023-04-24T05:39:08;98513.64;;;12.62;71.62
76753;BME280;65687;51.308;16.916;2023-04-24T05:44:09;98515.08;;;12.74;71.33
76753;BME280;65687;51.308;16.916;2023-04-24T05:49:11;98518.80;;;12.84;70.84
76753;BME280;65687;51.308;16.916;2023-04-24T05:54:13;98517.75;;;12.88;70.56
76753;BME280;65687;51.308;16.916;2023-04-24T05:59:15;98522.05;;;12.90;70.56
76753;BME280;65687;51.308;16.916;2023-04-24T06:04:17;98525.99;;;12.91;70.85
76753;BME280;65687;51.308;16.916;2023-04-24T06:09:18;98529.26;;;12.92;71.14
76753;BME280;65687;51.308;16.916;2023-04-24T06:14:20;98534.76;;;13.00;70.91
76753;BME280;65687;51.308;16.916;2023-04-24T06:19:23;98536.92;;;13.08;70.68
76753;BME280;65687;51.308;16.916;2023-04-24T06:24:28;98539.90;;;13.15;70.63
76753;BME280;65687;51.308;16.916;2023-04-24T06:29:29;98543.59;;;13.19;70.59
76753;BME280;65687;51.308;16.916;2023-04-24T06:34:31;98544.02;;;13.21;70.53
76753;BME280;65687;51.308;16.916;2023-04-24T06:39:33;98547.07;;;13.21;70.50
76753;BME280;65687;51.308;16.916;2023-04-24T06:44:36;98543.45;;;13.25;70.40
76753;BME280;65687;51.308;16.916;2023-04-24T06:49:42;98543.92;;;13.34;70.32
76753;BME280;65687;51.308;16.916;2023-04-24T06:54:43;98539.55;;;13.45;70.30
76753;BME280;65687;51.308;16.916;2023-04-24T06:59:45;98540.52;;;13.54;70.29
76753;BME280;65687;51.308;16.916;2023-04-24T07:04:47;98543.30;;;13.66;70.23
76753;BME280;65687;51.308;16.916;2023-04-24T07:09:49;98538.90;;;13.77;69.63
76753;BME280;65687;51.308;16.916;2023-04-24T07:14:51;98537.29;;;13.91;69.41
76753;BME280;65687;51.308;16.916;2023-04-24T07:19:53;98539.33;;;14.08;69.22
76753;BME280;65687;51.308;16.916;2023-04-24T07:24:55;98540.23;;;14.27;68.91
76753;BME280;65687;51.308;16.916;2023-04-24T07:29:57;98537.38;;;14.45;68.52
76753;BME280;65687;51.308;16.916;2023-04-24T07:34:59;98535.64;;;14.73;68.76
76753;BME280;65687;51.308;16.916;2023-04-24T07:40:00;98538.80;;;14.89;67.80
76753;BME280;65687;51.308;16.916;2023-04-24T07:45:02;98540.20;;;15.03;67.46
76753;BME280;65687;51.308;16.916;2023-04-24T07:50:05;98538.60;;;15.27;67.66
76753;BME280;65687;51.308;16.916;2023-04-24T07:55:06;98542.15;;;15.53;66.98
76753;BME280;65687;51.308;16.916;2023-04-24T08:00:08;98544.15;;;15.52;66.85
76753;BME280;65687;51.308;16.916;2023-04-24T08:05:11;98537.11;;;15.49;66.96
76753;BME280;65687;51.308;16.916;2023-04-24T08:10:12;98534.23;;;15.62;66.79
76753;BME280;65687;51.308;16.916;2023-04-24T08:15:14;98530.40;;;15.94;66.25
76753;BME280;65687;51.308;16.916;2023-04-24T08:20:16;98533.80;;;16.33;65.53
76753;BME280;65687;51.308;16.916;2023-04-24T08:25:18;98537.47;;;16.69;64.02
76753;BME280;65687;51.308;16.916;2023-04-24T08:30:20;98538.09;;;16.66;63.26
76753;BME280;65687;51.308;16.916;2023-04-24T08:35:22;98537.77;;;16.59;63.45
76753;BME280;65687;51.308;16.916;2023-04-24T08:40:28;98539.36;;;16.46;63.79
76753;BME280;65687;51.308;16.916;2023-04-24T08:45:32;98544.67;;;16.40;64.02
76753;BME280;65687;51.308;16.916;2023-04-24T08:50:34;98547.73;;;16.32;64.12
76753;BME280;65687;51.308;16.916;2023-04-24T08:55:37;98553.04;;;16.24;63.77
76753;BME280;65687;51.308;16.916;2023-04-24T09:00:39;98559.57;;;16.12;63.79
76753;BME280;65687;51.308;16.916;2023-04-24T09:05:47;98559.53;;;16.03;64.08
76753;BME280;65687;51.308;16.916;2023-04-24T09:10:49;98566.93;;;15.91;64.56
76753;BME280;65687;51.308;16.916;2023-04-24T09:15:52;98560.95;;;15.83;64.93
76753;BME280;65687;51.308;16.916;2023-04-24T09:20:58;98550.66;;;15.81;64.57
76753;BME280;65687;51.308;16.916;2023-04-24T09:26:03;98552.25;;;15.74;64.39
76753;BME280;65687;51.308;16.916;2023-04-24T09:31:18;98551.52;;;15.66;64.05
76753;BME280;65687;51.308;16.916;2023-04-24T09:36:33;98553.98;;;15.56;64.43
76753;BME280;65687;51.308;16.916;2023-04-24T09:41:35;98543.75;;;15.49;65.09
76753;BME280;65687;51.308;16.916;2023-04-24T09:46:45;98540.99;;;15.47;66.08
76753;BME280;65687;51.308;16.916;2023-04-24T09:52:08;98535.48;;;15.45;67.62
76753;BME280;65687;51.308;16.916;2023-04-24T09:57:10;98535.91;;;15.48;68.22
76753;BME280;65687;51.308;16.916;2023-04-24T10:02:19;98537.94;;;15.60;67.97
76753;BME280;65687;51.308;16.916;2023-04-24T10:07:21;98537.14;;;15.70;67.76
76753;BME280;65687;51.308;16.916;2023-04-24T10:12:23;98540.10;;;15.73;67.28
76753;BME280;65687;51.308;16.916;2023-04-24T10:17:28;98541.50;;;15.66;65.26
76753;BME280;65687;51.308;16.916;2023-04-24T10:22:30;98535.60;;;15.55;65.05
76753;BME280;65687;51.308;16.916;2023-04-24T10:27:32;98530.20;;;15.52;65.75
76753;BME280;65687;51.308;16.916;2023-04-24T10:32:33;98525.17;;;15.48;65.73
76753;BME280;65687;51.308;16.916;2023-04-24T10:37:37;98520.92;;;15.41;66.21
76753;BME280;65687;51.308;16.916;2023-04-24T10:42:40;98522.18;;;15.37;66.73
76753;BME280;65687;51.308;16.916;2023-04-24T10:48:04;98522.08;;;15.32;67.35
76753;BME280;65687;51.308;16.916;2023-04-24T10:53:14;98526.63;;;15.31;66.62
76753;BME280;65687;51.308;16.916;2023-04-24T10:58:36;98522.61;;;15.33;67.13
76753;BME280;65687;51.308;16.916;2023-04-24T11:03:50;98521.58;;;15.33;66.30
76753;BME280;65687;51.308;16.916;2023-04-24T11:09:02;98520.91;;;15.34;66.81
76753;BME280;65687;51.308;16.916;2023-04-24T11:14:09;98524.17;;;15.42;67.22
76753;BME280;65687;51.308;16.916;2023-04-24T11:29:43;98532.70;;;15.68;66.52
76753;BME280;65687;51.308;16.916;2023-04-24T11:35:00;98536.27;;;15.68;67.26
76753;BME280;65687;51.308;16.916;2023-04-24T11:40:07;98541.61;;;15.57;67.44
76753;BME280;65687;51.308;16.916;2023-04-24T11:45:10;98548.61;;;15.52;67.90
76753;BME280;65687;51.308;16.916;2023-04-24T11:50:15;98542.75;;;15.55;67.44
76753;BME280;65687;51.308;16.916;2023-04-24T12:00:23;98547.38;;;15.63;67.30
76753;BME280;65687;51.308;16.916;2023-04-24T12:05:27;98548.03;;;15.63;67.16
76753;BME280;65687;51.308;16.916;2023-04-24T12:10:30;98547.71;;;15.56;68.00
76753;BME280;65687;51.308;16.916;2023-04-24T12:15:32;98546.50;;;15.56;68.89
76753;BME280;65687;51.308;16.916;2023-04-24T12:20:35;98540.92;;;15.57;69.34
76753;BME280;65687;51.308;16.916;2023-04-24T12:25:38;98540.48;;;15.60;70.34
76753;BME280;65687;51.308;16.916;2023-04-24T12:30:51;98539.10;;;15.59;70.04
76753;BME280;65687;51.308;16.916;2023-04-24T12:35:53;98541.86;;;15.60;70.07
76753;BME280;65687;51.308;16.916;2023-04-24T12:41:10;98549.45;;;15.52;69.20
76753;BME280;65687;51.308;16.916;2023-04-24T12:46:11;98540.23;;;15.45;67.94
76753;BME280;65687;51.308;16.916;2023-04-24T12:51:13;98533.08;;;15.44;65.86
76753;BME280;65687;51.308;16.916;2023-04-24T12:56:15;98524.50;;;15.41;64.82
76753;BME280;65687;51.308;16.916;2023-04-24T13:01:17;98521.52;;;15.31;64.58
76753;BME280;65687;51.308;16.916;2023-04-24T13:06:18;98521.17;;;15.24;64.86
76753;BME280;65687;51.308;16.916;2023-04-24T13:11:21;98525.58;;;15.17;64.74
76753;BME280;65687;51.308;16.916;2023-04-24T13:16:23;98530.61;;;15.00;64.63
76753;BME280;65687;51.308;16.916;2023-04-24T13:21:24;98525.56;;;14.83;64.66
76753;BME280;65687;51.308;16.916;2023-04-24T13:26:27;98519.99;;;14.73;64.46
76753;BME280;65687;51.308;16.916;2023-04-24T13:31:29;98513.61;;;14.63;64.60
76753;BME280;65687;51.308;16.916;2023-04-24T13:36:30;98508.55;;;14.53;64.38
76753;BME280;65687;51.308;16.916;2023-04-24T13:41:33;98505.74;;;14.43;64.46
76753;BME280;65687;51.308;16.916;2023-04-24T13:46:34;98496.35;;;14.37;64.67
76753;BME280;65687;51.308;16.916;2023-04-24T13:51:37;98496.02;;;14.31;64.87
76753;BME280;65687;51.308;16.916;2023-04-24T13:56:39;98495.23;;;14.27;65.13
76753;BME280;65687;51.308;16.916;2023-04-24T14:01:41;98493.17;;;14.20;64.76
76753;BME280;65687;51.308;16.916;2023-04-24T14:06:46;98493.79;;;14.07;64.54
76753;BME280;65687;51.308;16.916;2023-04-24T14:11:48;98502.89;;;13.99;64.65
76753;BME280;65687;51.308;16.916;2023-04-24T14:16:49;98495.77;;;13.94;64.77
76753;BME280;65687;51.308;16.916;2023-04-24T14:21:51;98496.14;;;13.89;64.73
76753;BME280;65687;51.308;16.916;2023-04-24T14:26:53;98495.30;;;13.84;65.02
76753;BME280;65687;51.308;16.916;2023-04-24T14:31:55;98491.45;;;13.80;65.66
76753;BME280;65687;51.308;16.916;2023-04-24T14:36:56;98494.16;;;13.80;65.73
76753;BME280;65687;51.308;16.916;2023-04-24T14:42:00;98494.15;;;13.80;65.99
76753;BME280;65687;51.308;16.916;2023-04-24T14:47:02;98493.59;;;13.78;65.55
76753;BME280;65687;51.308;16.916;2023-04-24T14:52:04;98494.80;;;13.73;65.48
76753;BME280;65687;51.308;16.916;2023-04-24T14:57:05;98504.38;;;13.70;65.70
76753;BME280;65687;51.308;16.916;2023-04-24T15:02:07;98504.69;;;13.64;66.05
76753;BME280;65687;51.308;16.916;2023-04-24T15:07:09;98503.69;;;13.54;66.66
76753;BME280;65687;51.308;16.916;2023-04-24T15:12:11;98511.73;;;13.45;67.17
76753;BME280;65687;51.308;16.916;2023-04-24T15:17:13;98513.96;;;13.40;67.62
76753;BME280;65687;51.308;16.916;2023-04-24T15:22:16;98515.59;;;13.38;67.52
76753;BME280;65687;51.308;16.916;2023-04-24T15:27:19;98520.78;;;13.36;67.78
76753;BME280;65687;51.308;16.916;2023-04-24T15:32:21;98523.83;;;13.31;68.02
76753;BME280;65687;51.308;16.916;2023-04-24T15:37:23;98534.70;;;13.22;68.58
76753;BME280;65687;51.308;16.916;2023-04-24T15:42:26;98533.61;;;13.10;69.88
76753;BME280;65687;51.308;16.916;2023-04-24T15:47:29;98537.45;;;13.03;70.85
76753;BME280;65687;51.308;16.916;2023-04-24T15:52:30;98538.08;;;12.97;71.83
76753;BME280;65687;51.308;16.916;2023-04-24T15:57:32;98535.63;;;12.86;72.22
76753;BME280;65687;51.308;16.916;2023-04-24T16:02:34;98535.33;;;12.77;72.89
76753;BME280;65687;51.308;16.916;2023-04-24T16:07:37;98539.17;;;12.75;73.20
76753;BME280;65687;51.308;16.916;2023-04-24T16:12:39;98539.07;;;12.78;73.65
76753;BME280;65687;51.308;16.916;2023-04-24T16:17:41;98542.05;;;12.75;74.32
76753;BME280;65687;51.308;16.916;2023-04-24T16:22:42;98538.17;;;12.71;74.73
76753;BME280;65687;51.308;16.916;2023-04-24T16:27:44;98536.48;;;12.66;75.68
76753;BME280;65687;51.308;16.916;2023-04-24T16:32:47;98534.01;;;12.54;76.64
76753;BME280;65687;51.308;16.916;2023-04-24T16:37:48;98537.37;;;12.45;76.63
76753;BME280;65687;51.308;16.916;2023-04-24T16:42:50;98548.52;;;12.43;77.07
76753;BME280;65687;51.308;16.916;2023-04-24T16:47:53;98549.96;;;12.42;77.39
76753;BME280;65687;51.308;16.916;2023-04-24T16:52:54;98549.92;;;12.45;77.54
76753;BME280;65687;51.308;16.916;2023-04-24T16:57:56;98543.05;;;12.43;77.88
76753;BME280;65687;51.308;16.916;2023-04-24T17:02:58;98543.95;;;12.34;78.67
76753;BME280;65687;51.308;16.916;2023-04-24T17:07:59;98542.93;;;12.25;78.94
76753;BME280;65687;51.308;16.916;2023-04-24T17:13:01;98538.85;;;12.20;79.59
76753;BME280;65687;51.308;16.916;2023-04-24T17:18:03;98537.95;;;12.10;79.78
76753;BME280;65687;51.308;16.916;2023-04-24T17:23:05;98535.77;;;11.93;80.27
76753;BME280;65687;51.308;16.916;2023-04-24T17:28:26;98537.37;;;11.90;80.55
76753;BME280;65687;51.308;16.916;2023-04-24T17:33:29;98542.81;;;11.91;80.82
76753;BME280;65687;51.308;16.916;2023-04-24T17:38:31;98544.73;;;12.02;80.51
76753;BME280;65687;51.308;16.916;2023-04-24T17:43:33;98554.56;;;12.02;80.41
76753;BME280;65687;51.308;16.916;2023-04-24T17:48:35;98562.16;;;12.10;80.50
76753;BME280;65687;51.308;16.916;2023-04-24T17:53:37;98564.83;;;12.18;80.24
76753;BME280;65687;51.308;16.916;2023-04-24T17:58:39;98574.85;;;12.28;79.99
76753;BME280;65687;51.308;16.916;2023-04-24T18:03:41;98581.55;;;12.35;79.48
76753;BME280;65687;51.308;16.916;2023-04-24T18:08:44;98590.59;;;12.27;79.24
76753;BME280;65687;51.308;16.916;2023-04-24T18:13:46;98595.17;;;12.19;79.41
76753;BME280;65687;51.308;16.916;2023-04-24T18:18:49;98598.17;;;12.10;79.69
76753;BME280;65687;51.308;16.916;2023-04-24T18:23:50;98602.52;;;12.04;80.08
76753;BME280;65687;51.308;16.916;2023-04-24T18:28:53;98605.33;;;12.02;80.03
76753;BME280;65687;51.308;16.916;2023-04-24T18:33:54;98607.89;;;12.03;79.87
76753;BME280;65687;51.308;16.916;2023-04-24T18:38:56;98606.76;;;11.95;80.39
76753;BME280;65687;51.308;16.916;2023-04-24T18:43:59;98617.95;;;11.96;80.43
76753;BME280;65687;51.308;16.916;2023-04-24T18:49:02;98616.22;;;11.95;81.15
76753;BME280;65687;51.308;16.916;2023-04-24T18:54:04;98619.73;;;11.85;81.33
76753;BME280;65687;51.308;16.916;2023-04-24T18:59:06;98622.48;;;11.78;81.55
76753;BME280;65687;51.308;16.916;2023-04-24T19:04:08;98625.52;;;11.78;81.79
76753;BME280;65687;51.308;16.916;2023-04-24T19:09:12;98622.77;;;11.69;81.97
76753;BME280;65687;51.308;16.916;2023-04-24T19:14:15;98618.55;;;11.53;82.32
76753;BME280;65687;51.308;16.916;2023-04-24T19:19:17;98610.27;;;11.41;82.71
76753;BME280;65687;51.308;16.916;2023-04-24T19:24:18;98612.25;;;11.36;83.09
76753;BME280;65687;51.308;16.916;2023-04-24T19:29:21;98613.45;;;11.41;82.76
76753;BME280;65687;51.308;16.916;2023-04-24T19:34:24;98609.73;;;11.41;82.89
76753;BME280;65687;51.308;16.916;2023-04-24T19:39:25;98608.36;;;11.36;83.04
76753;BME280;65687;51.308;16.916;2023-04-24T19:44:27;98604.14;;;11.40;82.99
76753;BME280;65687;51.308;16.916;2023-04-24T19:49:31;98607.55;;;11.45;82.62
76753;BME280;65687;51.308;16.916;2023-04-24T19:54:33;98606.55;;;11.46;82.37
76753;BME280;65687;51.308;16.916;2023-04-24T19:59:36;98604.74;;;11.42;82.05
76753;BME280;65687;51.308;16.916;2023-04-24T20:04:38;98612.66;;;11.38;81.91
76753;BME280;65687;51.308;16.916;2023-04-24T20:09:40;98622.17;;;11.35;82.18
76753;BME280;65687;51.308;16.916;2023-04-24T20:14:42;98623.74;;;11.32;82.11
76753;BME280;65687;51.308;16.916;2023-04-24T20:19:44;98624.55;;;11.28;82.46
76753;BME280;65687;51.308;16.916;2023-04-24T20:24:46;98625.58;;;11.28;82.51
76753;BME280;65687;51.308;16.916;2023-04-24T20:29:50;98627.51;;;11.26;82.66
76753;BME280;65687;51.308;16.916;2023-04-24T20:34:55;98629.69;;;11.29;82.65
76753;BME280;65687;51.308;16.916;2023-04-24T20:39:56;98630.46;;;11.24;82.47
76753;BME280;65687;51.308;16.916;2023-04-24T20:45:00;98636.10;;;11.21;82.59
76753;BME280;65687;51.308;16.916;2023-04-24T20:50:03;98638.30;;;11.17;82.45
76753;BME280;65687;51.308;16.916;2023-04-24T20:55:07;98639.14;;;11.17;82.82
76753;BME280;65687;51.308;16.916;2023-04-24T21:00:11;98643.38;;;11.17;82.79
76753;BME280;65687;51.308;16.916;2023-04-24T21:05:13;98648.77;;;11.13;82.72
76753;BME280;65687;51.308;16.916;2023-04-24T21:10:15;98655.11;;;11.07;82.89
76753;BME280;65687;51.308;16.916;2023-04-24T21:15:17;98658.63;;;10.99;82.23
76753;BME280;65687;51.308;16.916;2023-04-24T21:20:18;98661.91;;;10.89;81.24
76753;BME280;65687;51.308;16.916;2023-04-24T21:25:20;98663.55;;;10.77;79.73
76753;BME280;65687;51.308;16.916;2023-04-24T21:30:22;98671.98;;;10.62;78.50
76753;BME280;65687;51.308;16.916;2023-04-24T21:35:23;98675.73;;;10.52;78.13
76753;BME280;65687;51.308;16.916;2023-04-24T21:40:25;98677.70;;;10.43;77.27
76753;BME280;65687;51.308;16.916;2023-04-24T21:45:26;98683.81;;;10.36;76.53
76753;BME280;65687;51.308;16.916;2023-04-24T21:50:28;98685.90;;;10.31;76.40
76753;BME280;65687;51.308;16.916;2023-04-24T21:55:30;98685.32;;;10.26;75.61
76753;BME280;65687;51.308;16.916;2023-04-24T22:00:31;98686.39;;;10.20;75.20
76753;BME280;65687;51.308;16.916;2023-04-24T22:05:33;98691.64;;;10.10;74.55
76753;BME280;65687;51.308;16.916;2023-04-24T22:10:35;98693.54;;;10.01;74.70
76753;BME280;65687;51.308;16.916;2023-04-24T22:15:37;98694.83;;;9.93;74.78
76753;BME280;65687;51.308;16.916;2023-04-24T22:20:39;98695.96;;;9.88;74.74
76753;BME280;65687;51.308;16.916;2023-04-24T22:25:40;98692.41;;;9.85;74.35
76753;BME280;65687;51.308;16.916;2023-04-24T22:30:42;98696.91;;;9.80;73.57
76753;BME280;65687;51.308;16.916;2023-04-24T22:35:43;98701.20;;;9.75;73.14
76753;BME280;65687;51.308;16.916;2023-04-24T22:40:45;98704.45;;;9.70;73.04
76753;BME280;65687;51.308;16.916;2023-04-24T22:45:47;98711.39;;;9.63;73.02
76753;BME280;65687;51.308;16.916;2023-04-24T22:50:53;98711.89;;;9.53;72.59
76753;BME280;65687;51.308;16.916;2023-04-24T22:55:55;98712.73;;;9.46;72.14
76753;BME280;65687;51.308;16.916;2023-04-24T23:00:57;98713.52;;;9.42;71.93
76753;BME280;65687;51.308;16.916;2023-04-24T23:05:59;98716.96;;;9.37;71.87
76753;BME280;65687;51.308;16.916;2023-04-24T23:11:01;98716.08;;;9.33;71.54
76753;BME280;65687;51.308;16.916;2023-04-24T23:16:03;98715.87;;;9.26;71.57
76753;BME280;65687;51.308;16.916;2023-04-24T23:21:05;98721.59;;;9.19;71.57
76753;BME280;65687;51.308;16.916;2023-04-24T23:26:07;98718.01;;;9.15;71.81
76753;BME280;65687;51.308;16.916;2023-04-24T23:31:09;98718.65;;;9.11;71.65
76753;BME280;65687;51.308;16.916;2023-04-24T23:36:11;98715.92;;;9.08;71.17
76753;BME280;65687;51.308;16.916;2023-04-24T23:41:13;98717.54;;;9.06;71.50
76753;BME280;65687;51.308;16.916;2023-04-24T23:46:15;98717.13;;;9.05;71.68
76753;BME280;65687;51.308;16.916;2023-04-24T23:51:16;98716.14;;;9.05;71.71
76753;BME280;65687;51.308;16.916;2023-04-24T23:56:18;98718.79;;;9.04;71.53
